Airfield :







YOU CAN JOIN US ON...

 
LOGIN :

Register | Disclaimer

   EN    FR    IT 

 









Legend :    VFR   Marginal VFR   IFR   Intensive IFR   Very Intensive IFR
Visi :
Ceiling :
>= 8 km
>= 3000ft
5 to 8 km
1000 to 3000 ft
1500m to 5 km
500 to 1000 ft
800 to 1500m
200 to 500 ft
< 800m
< 200 ft
Symbols :   Thunderstorms  Fog  Heavy snow  Heavy precipitations  Wind > 20 kt







- Airport Elevation : 141 ft
- IATA code : YQI


CYQI - Yarmouth

CURRENT METAR :
  • 160300Z 27007KT 9SM FEW002 SCT055 SCT250 13/13 A2997 RMK SF1SC3CI1 SF TR SLP151

EXPIRED METARs :
  • 160200Z 25010KT 9SM FEW002 FEW250 13/13 A2997 RMK SF1CI1 SF TR CI TR SLP151
  • 160128Z 25008KT 9SM FEW003 FEW100 FEW250 13/13 A2998 RMK SF1AC1CI1 SF TR AC TR CI TR SLP153
  • 160100Z 23007KT 15SM FEW100 FEW250 13/12 A2998 RMK AC1CI1 AC TR CI TR SLP156

TAF AMD TAF CYQI
Valid from the 16 at 00:00 until the 16 at 12:00 UTC


160056Z 1600/1612 26010KT P6SM FEW004 SCT220
PROB30 1600/1601 3/4SM BR BKN004
FM160300 30010KT P6SM -RA OVC050
TEMPO 1603/1607 P6SM NSW
FM160700 30010KT P6SM SCT050 BKN160
BECMG 1608/1610 FEW040 RMK NXT FCST BY 160600Z
No reported NOTAMs for that airfield.



MET'MAP, your aeronautical weather chart ! - Copyright ORBIFLY December 2007 - Disclaimer

ORBIFLY MET'MAP TEAM :

Programming & Development : Alexandra Zaïnal
Concept & Development : Baudouin d'Aumeries
Co-Development & Prog : Marc-Olivier Méhu
Technical & hardware support : Manuel Goepfert

Contact : metmap@orbifly.com




SOURCES & CREDITS :

   NOAA